sensor_id;sensor_type;location;lat;lon;timestamp;pressure;altitude;pressure_sealevel;temperature;humidity
51603;BME280;37954;51.980;5.850;2024-03-06T00:01:41;101430.41;;;8.20;100.00
51603;BME280;37954;51.980;5.850;2024-03-06T00:05:53;101431.31;;;8.27;100.00
51603;BME280;37954;51.980;5.850;2024-03-06T00:10:05;101448.56;;;8.24;100.00
51603;BME280;37954;51.980;5.850;2024-03-06T00:14:17;101434.59;;;8.08;99.86
51603;BME280;37954;51.980;5.850;2024-03-06T00:18:28;101443.66;;;8.07;99.83
51603;BME280;37954;51.980;5.850;2024-03-06T00:22:40;101471.78;;;8.02;99.50
51603;BME280;37954;51.980;5.850;2024-03-06T00:26:52;101464.06;;;7.93;99.45
51603;BME280;37954;51.980;5.850;2024-03-06T00:31:05;101484.19;;;7.89;99.16
51603;BME280;37954;51.980;5.850;2024-03-06T00:35:16;101465.50;;;7.74;99.23
51603;BME280;37954;51.980;5.850;2024-03-06T00:39:28;101472.59;;;7.67;99.39
51603;BME280;37954;51.980;5.850;2024-03-06T00:43:40;101476.84;;;7.61;99.45
51603;BME280;37954;51.980;5.850;2024-03-06T00:47:51;101460.97;;;7.45;99.45
51603;BME280;37954;51.980;5.850;2024-03-06T00:52:03;101470.94;;;7.37;99.21
51603;BME280;37954;51.980;5.850;2024-03-06T00:56:15;101479.69;;;7.30;99.10
51603;BME280;37954;51.980;5.850;2024-03-06T01:00:27;101478.03;;;7.15;99.19
51603;BME280;37954;51.980;5.850;2024-03-06T01:04:40;101489.00;;;7.05;99.41
51603;BME280;37954;51.980;5.850;2024-03-06T01:08:51;101489.88;;;6.97;98.97
51603;BME280;37954;51.980;5.850;2024-03-06T01:13:03;101504.34;;;6.88;98.95
51603;BME280;37954;51.980;5.850;2024-03-06T01:17:15;101508.19;;;6.86;99.00
51603;BME280;37954;51.980;5.850;2024-03-06T01:21:27;101493.78;;;6.72;99.36
51603;BME280;37954;51.980;5.850;2024-03-06T01:25:40;101495.16;;;6.68;99.27
51603;BME280;37954;51.980;5.850;2024-03-06T01:29:52;101508.31;;;6.70;99.79
51603;BME280;37954;51.980;5.850;2024-03-06T01:34:03;101498.03;;;6.58;99.50
51603;BME280;37954;51.980;5.850;2024-03-06T01:38:15;101508.28;;;6.55;100.00
51603;BME280;37954;51.980;5.850;2024-03-06T01:42:27;101521.44;;;6.56;99.88
51603;BME280;37954;51.980;5.850;2024-03-06T01:46:40;101505.81;;;6.45;99.83
51603;BME280;37954;51.980;5.850;2024-03-06T01:50:56;101513.72;;;6.39;99.84
51603;BME280;37954;51.980;5.850;2024-03-06T01:55:09;101512.22;;;6.36;99.92
51603;BME280;37954;51.980;5.850;2024-03-06T01:59:25;101517.75;;;6.35;99.68
51603;BME280;37954;51.980;5.850;2024-03-06T02:03:47;101508.66;;;6.21;100.00
51603;BME280;37954;51.980;5.850;2024-03-06T02:07:59;101513.03;;;6.14;100.00
51603;BME280;37954;51.980;5.850;2024-03-06T02:12:12;101530.69;;;6.15;99.86
51603;BME280;37954;51.980;5.850;2024-03-06T02:16:24;101523.94;;;6.04;100.00
51603;BME280;37954;51.980;5.850;2024-03-06T02:20:39;101528.44;;;5.96;99.99
51603;BME280;37954;51.980;5.850;2024-03-06T02:24:53;101539.28;;;5.94;100.00
51603;BME280;37954;51.980;5.850;2024-03-06T02:29:06;101536.47;;;5.87;100.00
51603;BME280;37954;51.980;5.850;2024-03-06T02:33:18;101530.00;;;5.74;100.00
51603;BME280;37954;51.980;5.850;2024-03-06T02:37:29;101552.81;;;5.76;100.00
51603;BME280;37954;51.980;5.850;2024-03-06T02:41:41;101549.84;;;5.71;99.93
51603;BME280;37954;51.980;5.850;2024-03-06T02:45:53;101552.84;;;5.68;100.00
51603;BME280;37954;51.980;5.850;2024-03-06T02:50:05;101545.72;;;5.60;100.00
51603;BME280;37954;51.980;5.850;2024-03-06T02:54:17;101556.69;;;5.57;100.00
51603;BME280;37954;51.980;5.850;2024-03-06T02:58:28;101560.22;;;5.50;100.00
51603;BME280;37954;51.980;5.850;2024-03-06T03:02:43;101555.06;;;5.48;100.00
51603;BME280;37954;51.980;5.850;2024-03-06T03:06:55;101568.06;;;5.51;100.00
51603;BME280;37954;51.980;5.850;2024-03-06T03:11:06;101551.41;;;5.49;100.00
51603;BME280;37954;51.980;5.850;2024-03-06T03:15:19;101561.03;;;5.58;100.00
51603;BME280;37954;51.980;5.850;2024-03-06T03:19:31;101560.91;;;5.52;100.00
51603;BME280;37954;51.980;5.850;2024-03-06T03:23:43;101541.25;;;5.45;100.00
51603;BME280;37954;51.980;5.850;2024-03-06T03:27:54;101554.06;;;5.41;100.00
51603;BME280;37954;51.980;5.850;2024-03-06T03:32:06;101561.72;;;5.44;100.00
51603;BME280;37954;51.980;5.850;2024-03-06T03:36:18;101544.75;;;5.37;100.00
51603;BME280;37954;51.980;5.850;2024-03-06T03:40:30;101560.41;;;5.40;100.00
51603;BME280;37954;51.980;5.850;2024-03-06T03:44:41;101556.78;;;5.33;100.00
51603;BME280;37954;51.980;5.850;2024-03-06T03:48:53;101558.25;;;5.28;100.00
51603;BME280;37954;51.980;5.850;2024-03-06T03:53:05;101567.41;;;5.25;100.00
51603;BME280;37954;51.980;5.850;2024-03-06T03:57:17;101559.44;;;5.17;100.00
51603;BME280;37954;51.980;5.850;2024-03-06T04:01:28;101561.78;;;5.12;100.00
51603;BME280;37954;51.980;5.850;2024-03-06T04:05:40;101573.09;;;5.14;100.00
51603;BME280;37954;51.980;5.850;2024-03-06T04:09:52;101576.41;;;5.08;100.00
51603;BME280;37954;51.980;5.850;2024-03-06T04:14:04;101582.44;;;5.02;100.00
51603;BME280;37954;51.980;5.850;2024-03-06T04:18:18;101575.09;;;4.96;100.00
51603;BME280;37954;51.980;5.850;2024-03-06T04:22:29;101585.25;;;5.00;100.00
51603;BME280;37954;51.980;5.850;2024-03-06T04:26:41;101575.56;;;4.91;100.00
51603;BME280;37954;51.980;5.850;2024-03-06T04:30:53;101587.72;;;4.85;100.00
51603;BME280;37954;51.980;5.850;2024-03-06T04:35:05;101586.41;;;4.81;100.00
51603;BME280;37954;51.980;5.850;2024-03-06T04:39:17;101578.06;;;4.76;100.00
51603;BME280;37954;51.980;5.850;2024-03-06T04:43:29;101584.72;;;4.72;100.00
51603;BME280;37954;51.980;5.850;2024-03-06T04:47:41;101588.03;;;4.66;100.00
51603;BME280;37954;51.980;5.850;2024-03-06T04:51:53;101600.69;;;4.64;100.00
51603;BME280;37954;51.980;5.850;2024-03-06T04:56:04;101594.84;;;4.61;100.00
51603;BME280;37954;51.980;5.850;2024-03-06T05:00:16;101604.50;;;4.62;100.00
51603;BME280;37954;51.980;5.850;2024-03-06T05:04:30;101612.16;;;4.65;100.00
51603;BME280;37954;51.980;5.850;2024-03-06T05:08:59;101617.59;;;4.55;100.00
51603;BME280;37954;51.980;5.850;2024-03-06T05:13:28;101623.41;;;4.50;100.00
51603;BME280;37954;51.980;5.850;2024-03-06T05:17:57;101630.72;;;4.48;100.00
51603;BME280;37954;51.980;5.850;2024-03-06T05:22:26;101639.56;;;4.49;100.00
51603;BME280;37954;51.980;5.850;2024-03-06T05:26:55;101637.16;;;4.38;100.00
51603;BME280;37954;51.980;5.850;2024-03-06T05:31:24;101639.97;;;4.36;100.00
51603;BME280;37954;51.980;5.850;2024-03-06T05:35:54;101658.28;;;4.39;100.00
51603;BME280;37954;51.980;5.850;2024-03-06T05:40:23;101654.31;;;4.43;100.00
51603;BME280;37954;51.980;5.850;2024-03-06T05:44:52;101670.66;;;4.48;100.00
51603;BME280;37954;51.980;5.850;2024-03-06T05:49:23;101668.59;;;4.42;100.00
51603;BME280;37954;51.980;5.850;2024-03-06T05:53:52;101686.44;;;4.50;100.00
51603;BME280;37954;51.980;5.850;2024-03-06T05:58:21;101704.25;;;4.58;100.00
51603;BME280;37954;51.980;5.850;2024-03-06T06:02:33;101700.75;;;4.57;100.00
51603;BME280;37954;51.980;5.850;2024-03-06T06:06:45;101695.13;;;4.68;100.00
51603;BME280;37954;51.980;5.850;2024-03-06T06:10:56;101697.84;;;4.76;100.00
51603;BME280;37954;51.980;5.850;2024-03-06T06:15:08;101700.84;;;4.81;100.00
51603;BME280;37954;51.980;5.850;2024-03-06T06:19:20;101707.69;;;4.92;100.00
51603;BME280;37954;51.980;5.850;2024-03-06T06:23:32;101714.88;;;5.00;100.00
51603;BME280;37954;51.980;5.850;2024-03-06T06:27:44;101715.38;;;5.03;100.00
51603;BME280;37954;51.980;5.850;2024-03-06T06:31:56;101725.53;;;5.08;100.00
51603;BME280;37954;51.980;5.850;2024-03-06T06:36:08;101717.53;;;5.08;100.00
51603;BME280;37954;51.980;5.850;2024-03-06T06:40:21;101733.22;;;5.19;100.00
51603;BME280;37954;51.980;5.850;2024-03-06T06:44:32;101739.03;;;5.22;100.00
51603;BME280;37954;51.980;5.850;2024-03-06T06:48:44;101743.91;;;5.35;100.00
51603;BME280;37954;51.980;5.850;2024-03-06T06:52:56;101755.72;;;5.41;100.00
51603;BME280;37954;51.980;5.850;2024-03-06T06:57:08;101753.09;;;5.49;100.00
51603;BME280;37954;51.980;5.850;2024-03-06T07:01:22;101765.59;;;5.65;100.00
51603;BME280;37954;51.980;5.850;2024-03-06T07:05:34;101773.41;;;5.74;100.00
51603;BME280;37954;51.980;5.850;2024-03-06T07:09:45;101774.94;;;5.85;100.00
51603;BME280;37954;51.980;5.850;2024-03-06T07:13:57;101772.81;;;5.88;100.00
51603;BME280;37954;51.980;5.850;2024-03-06T07:18:09;101795.44;;;6.01;100.00
51603;BME280;37954;51.980;5.850;2024-03-06T07:22:20;101780.28;;;5.93;100.00
51603;BME280;37954;51.980;5.850;2024-03-06T07:26:32;101786.78;;;5.99;100.00
51603;BME280;37954;51.980;5.850;2024-03-06T07:30:49;101800.94;;;6.07;100.00
51603;BME280;37954;51.980;5.850;2024-03-06T07:35:01;101804.28;;;6.17;100.00
51603;BME280;37954;51.980;5.850;2024-03-06T07:39:15;101808.28;;;6.13;100.00
51603;BME280;37954;51.980;5.850;2024-03-06T07:43:27;101818.94;;;6.13;100.00
51603;BME280;37954;51.980;5.850;2024-03-06T07:47:39;101823.13;;;6.16;100.00
51603;BME280;37954;51.980;5.850;2024-03-06T07:51:53;101816.94;;;6.23;100.00
51603;BME280;37954;51.980;5.850;2024-03-06T07:56:05;101797.44;;;6.15;100.00
51603;BME280;37954;51.980;5.850;2024-03-06T08:00:17;101822.47;;;6.22;100.00
51603;BME280;37954;51.980;5.850;2024-03-06T08:04:31;101827.25;;;6.26;100.00
51603;BME280;37954;51.980;5.850;2024-03-06T08:08:43;101827.94;;;6.37;100.00
51603;BME280;37954;51.980;5.850;2024-03-06T08:12:58;101833.78;;;6.40;100.00
51603;BME280;37954;51.980;5.850;2024-03-06T08:17:10;101834.28;;;6.36;100.00
51603;BME280;37954;51.980;5.850;2024-03-06T08:21:22;101858.41;;;6.58;100.00
51603;BME280;37954;51.980;5.850;2024-03-06T08:25:34;101831.25;;;6.47;100.00
51603;BME280;37954;51.980;5.850;2024-03-06T08:29:46;101860.59;;;6.71;100.00
51603;BME280;37954;51.980;5.850;2024-03-06T08:33:57;101874.22;;;6.84;100.00
51603;BME280;37954;51.980;5.850;2024-03-06T08:38:09;101875.22;;;6.91;100.00
51603;BME280;37954;51.980;5.850;2024-03-06T08:42:21;101885.88;;;6.99;100.00
51603;BME280;37954;51.980;5.850;2024-03-06T08:46:33;101888.38;;;7.01;100.00
51603;BME280;37954;51.980;5.850;2024-03-06T08:50:44;101890.84;;;7.11;100.00
51603;BME280;37954;51.980;5.850;2024-03-06T08:54:57;101891.47;;;7.21;100.00
51603;BME280;37954;51.980;5.850;2024-03-06T08:59:09;101901.94;;;7.39;100.00
51603;BME280;37954;51.980;5.850;2024-03-06T09:03:20;101912.38;;;7.56;100.00
51603;BME280;37954;51.980;5.850;2024-03-06T09:07:39;101901.78;;;7.71;100.00
51603;BME280;37954;51.980;5.850;2024-03-06T09:12:37;101918.53;;;7.96;100.00
51603;BME280;37954;51.980;5.850;2024-03-06T09:17:39;101892.63;;;7.88;100.00
51603;BME280;37954;51.980;5.850;2024-03-06T09:22:32;101940.00;;;8.11;100.00
51603;BME280;37954;51.980;5.850;2024-03-06T09:26:48;101922.84;;;7.97;100.00
51603;BME280;37954;51.980;5.850;2024-03-06T09:31:01;101925.47;;;8.05;100.00
51603;BME280;37954;51.980;5.850;2024-03-06T09:35:16;101922.63;;;8.07;100.00
51603;BME280;37954;51.980;5.850;2024-03-06T09:39:29;101935.22;;;8.21;100.00
51603;BME280;37954;51.980;5.850;2024-03-06T09:43:44;101925.19;;;8.23;100.00
51603;BME280;37954;51.980;5.850;2024-03-06T09:48:22;101960.69;;;8.48;100.00
51603;BME280;37954;51.980;5.850;2024-03-06T09:52:44;101944.53;;;8.33;100.00
51603;BME280;37954;51.980;5.850;2024-03-06T09:57:12;101954.84;;;8.44;100.00
51603;BME280;37954;51.980;5.850;2024-03-06T10:06:10;101964.09;;;8.56;100.00
51603;BME280;37954;51.980;5.850;2024-03-06T10:10:35;101982.97;;;8.63;100.00
51603;BME280;37954;51.980;5.850;2024-03-06T10:14:51;101984.81;;;8.62;100.00
51603;BME280;37954;51.980;5.850;2024-03-06T10:19:18;101990.53;;;8.82;100.00
51603;BME280;37954;51.980;5.850;2024-03-06T10:23:39;101966.59;;;8.81;100.00
51603;BME280;37954;51.980;5.850;2024-03-06T10:28:28;101964.66;;;8.89;100.00
51603;BME280;37954;51.980;5.850;2024-03-06T10:32:52;101964.28;;;8.92;100.00
51603;BME280;37954;51.980;5.850;2024-03-06T10:37:08;101980.03;;;9.10;100.00
51603;BME280;37954;51.980;5.850;2024-03-06T10:41:22;101969.84;;;9.05;100.00
51603;BME280;37954;51.980;5.850;2024-03-06T10:46:00;101976.03;;;9.06;100.00
51603;BME280;37954;51.980;5.850;2024-03-06T10:50:15;101974.31;;;9.13;100.00
51603;BME280;37954;51.980;5.850;2024-03-06T10:54:33;101983.00;;;9.30;100.00
51603;BME280;37954;51.980;5.850;2024-03-06T10:58:52;101972.44;;;9.58;100.00
51603;BME280;37954;51.980;5.850;2024-03-06T11:03:09;101993.69;;;9.89;99.68
51603;BME280;37954;51.980;5.850;2024-03-06T11:07:24;101971.56;;;10.01;98.62
51603;BME280;37954;51.980;5.850;2024-03-06T11:11:51;101988.50;;;10.02;97.93
51603;BME280;37954;51.980;5.850;2024-03-06T11:16:04;101994.63;;;9.96;96.80
51603;BME280;37954;51.980;5.850;2024-03-06T11:20:21;101988.13;;;9.90;96.70
51603;BME280;37954;51.980;5.850;2024-03-06T11:24:39;102005.44;;;10.02;96.65
51603;BME280;37954;51.980;5.850;2024-03-06T11:29:03;101994.88;;;10.01;96.10
51603;BME280;37954;51.980;5.850;2024-03-06T11:33:21;101998.94;;;10.11;95.93
51603;BME280;37954;51.980;5.850;2024-03-06T11:37:34;102028.53;;;10.33;95.21
51603;BME280;37954;51.980;5.850;2024-03-06T11:41:48;102023.88;;;10.41;94.39
51603;BME280;37954;51.980;5.850;2024-03-06T11:46:08;102023.88;;;10.63;94.23
51603;BME280;37954;51.980;5.850;2024-03-06T11:50:21;102017.97;;;10.74;93.30
51603;BME280;37954;51.980;5.850;2024-03-06T11:54:33;102026.38;;;10.86;93.11
51603;BME280;37954;51.980;5.850;2024-03-06T11:58:45;102018.47;;;11.05;93.19
51603;BME280;37954;51.980;5.850;2024-03-06T12:03:00;102036.84;;;11.58;93.37
51603;BME280;37954;51.980;5.850;2024-03-06T12:07:12;102041.31;;;11.78;92.26
51603;BME280;37954;51.980;5.850;2024-03-06T12:11:25;102029.91;;;12.11;90.00
51603;BME280;37954;51.980;5.850;2024-03-06T12:15:37;102037.44;;;12.48;87.99
51603;BME280;37954;51.980;5.850;2024-03-06T12:19:48;102044.31;;;12.64;84.27
51603;BME280;37954;51.980;5.850;2024-03-06T12:24:08;102046.66;;;13.13;85.56
51603;BME280;37954;51.980;5.850;2024-03-06T12:28:24;102038.72;;;13.65;84.57
51603;BME280;37954;51.980;5.850;2024-03-06T12:32:35;102039.06;;;13.88;83.72
51603;BME280;37954;51.980;5.850;2024-03-06T12:36:47;102033.78;;;14.06;80.54
51603;BME280;37954;51.980;5.850;2024-03-06T12:40:59;102032.25;;;14.30;81.23
51603;BME280;37954;51.980;5.850;2024-03-06T12:45:12;102036.34;;;14.46;80.61
51603;BME280;37954;51.980;5.850;2024-03-06T12:49:26;102033.91;;;14.24;77.07
51603;BME280;37954;51.980;5.850;2024-03-06T12:53:38;102023.41;;;14.03;76.13
51603;BME280;37954;51.980;5.850;2024-03-06T12:57:51;102025.56;;;13.88;75.44
51603;BME280;37954;51.980;5.850;2024-03-06T13:02:03;102022.13;;;13.54;74.17
51603;BME280;37954;51.980;5.850;2024-03-06T13:06:15;102015.75;;;13.29;74.57
51603;BME280;37954;51.980;5.850;2024-03-06T13:10:27;102018.03;;;13.26;75.66
51603;BME280;37954;51.980;5.850;2024-03-06T13:14:39;102015.09;;;13.40;75.62
51603;BME280;37954;51.980;5.850;2024-03-06T13:18:51;102016.13;;;13.46;74.68
51603;BME280;37954;51.980;5.850;2024-03-06T13:23:04;102029.22;;;13.42;74.09
51603;BME280;37954;51.980;5.850;2024-03-06T13:27:17;102026.34;;;13.24;73.07
51603;BME280;37954;51.980;5.850;2024-03-06T13:31:29;102021.34;;;13.08;72.08
51603;BME280;37954;51.980;5.850;2024-03-06T13:35:42;102023.84;;;12.96;71.62
51603;BME280;37954;51.980;5.850;2024-03-06T13:39:54;102025.69;;;12.89;71.33
51603;BME280;37954;51.980;5.850;2024-03-06T13:44:09;102028.38;;;12.82;70.53
51603;BME280;37954;51.980;5.850;2024-03-06T13:48:21;102026.09;;;12.73;70.40
51603;BME280;37954;51.980;5.850;2024-03-06T13:52:34;102033.97;;;12.74;69.59
51603;BME280;37954;51.980;5.850;2024-03-06T13:56:46;102033.34;;;12.66;69.14
51603;BME280;37954;51.980;5.850;2024-03-06T14:00:59;102038.72;;;12.66;69.36
51603;BME280;37954;51.980;5.850;2024-03-06T14:05:11;102043.09;;;12.60;68.55
51603;BME280;37954;51.980;5.850;2024-03-06T14:09:24;102029.34;;;12.48;68.85
51603;BME280;37954;51.980;5.850;2024-03-06T14:13:36;102030.00;;;12.50;69.29
51603;BME280;37954;51.980;5.850;2024-03-06T14:17:48;102046.19;;;12.57;69.16
51603;BME280;37954;51.980;5.850;2024-03-06T14:22:00;102030.19;;;12.49;69.24
51603;BME280;37954;51.980;5.850;2024-03-06T14:26:16;102028.53;;;12.48;68.92
51603;BME280;37954;51.980;5.850;2024-03-06T14:30:27;102051.97;;;12.54;67.53
51603;BME280;37954;51.980;5.850;2024-03-06T14:34:39;102046.59;;;12.54;67.41
51603;BME280;37954;51.980;5.850;2024-03-06T14:38:51;102050.53;;;12.58;66.51
51603;BME280;37954;51.980;5.850;2024-03-06T14:43:08;102055.94;;;12.58;66.42
51603;BME280;37954;51.980;5.850;2024-03-06T14:47:25;102049.69;;;12.51;66.04
51603;BME280;37954;51.980;5.850;2024-03-06T14:51:38;102038.91;;;12.44;66.47
51603;BME280;37954;51.980;5.850;2024-03-06T14:55:49;102043.28;;;12.45;65.35
51603;BME280;37954;51.980;5.850;2024-03-06T15:00:01;102052.97;;;12.33;65.57
51603;BME280;37954;51.980;5.850;2024-03-06T15:04:17;102041.06;;;12.14;65.56
51603;BME280;37954;51.980;5.850;2024-03-06T15:08:29;102061.78;;;12.14;65.85
51603;BME280;37954;51.980;5.850;2024-03-06T15:12:41;102052.28;;;12.11;66.77
51603;BME280;37954;51.980;5.850;2024-03-06T15:16:54;102064.88;;;12.04;67.07
51603;BME280;37954;51.980;5.850;2024-03-06T15:21:05;102067.13;;;12.01;67.60
51603;BME280;37954;51.980;5.850;2024-03-06T15:25:18;102057.97;;;11.95;67.87
51603;BME280;37954;51.980;5.850;2024-03-06T15:29:29;102057.31;;;11.87;68.07
51603;BME280;37954;51.980;5.850;2024-03-06T15:33:41;102066.63;;;11.84;68.00
51603;BME280;37954;51.980;5.850;2024-03-06T15:37:54;102053.16;;;11.77;68.07
51603;BME280;37954;51.980;5.850;2024-03-06T15:42:06;102054.75;;;11.72;67.69
51603;BME280;37954;51.980;5.850;2024-03-06T15:46:19;102060.50;;;11.69;67.54
51603;BME280;37954;51.980;5.850;2024-03-06T15:50:31;102053.41;;;11.61;67.68
51603;BME280;37954;51.980;5.850;2024-03-06T15:54:43;102055.88;;;11.56;67.62
51603;BME280;37954;51.980;5.850;2024-03-06T15:58:55;102049.03;;;11.54;67.52
51603;BME280;37954;51.980;5.850;2024-03-06T16:03:06;102060.63;;;11.54;67.70
51603;BME280;37954;51.980;5.850;2024-03-06T16:07:19;102057.09;;;11.54;67.77
51603;BME280;37954;51.980;5.850;2024-03-06T16:11:32;102062.88;;;11.50;68.01
51603;BME280;37954;51.980;5.850;2024-03-06T16:15:44;102058.72;;;11.48;67.72
51603;BME280;37954;51.980;5.850;2024-03-06T16:19:55;102069.47;;;11.48;67.41
51603;BME280;37954;51.980;5.850;2024-03-06T16:24:07;102047.41;;;11.31;67.75
51603;BME280;37954;51.980;5.850;2024-03-06T16:28:21;102075.44;;;11.43;67.35
51603;BME280;37954;51.980;5.850;2024-03-06T16:32:34;102063.19;;;11.34;67.61
51603;BME280;37954;51.980;5.850;2024-03-06T16:36:46;102082.25;;;11.39;67.87
51603;BME280;37954;51.980;5.850;2024-03-06T16:40:57;102074.50;;;11.30;68.54
51603;BME280;37954;51.980;5.850;2024-03-06T16:45:09;102074.28;;;11.25;68.73
51603;BME280;37954;51.980;5.850;2024-03-06T16:49:23;102087.28;;;11.21;68.73
51603;BME280;37954;51.980;5.850;2024-03-06T16:53:34;102084.53;;;11.14;69.46
51603;BME280;37954;51.980;5.850;2024-03-06T16:57:46;102100.28;;;11.18;69.34
51603;BME280;37954;51.980;5.850;2024-03-06T17:02:00;102097.09;;;11.07;69.70
51603;BME280;37954;51.980;5.850;2024-03-06T17:06:13;102112.00;;;11.10;70.18
51603;BME280;37954;51.980;5.850;2024-03-06T17:10:25;102111.97;;;11.03;70.78
51603;BME280;37954;51.980;5.850;2024-03-06T17:14:37;102111.88;;;10.97;71.80
51603;BME280;37954;51.980;5.850;2024-03-06T17:18:49;102113.69;;;10.90;72.95
51603;BME280;37954;51.980;5.850;2024-03-06T17:23:01;102116.03;;;10.78;73.52
51603;BME280;37954;51.980;5.850;2024-03-06T17:27:15;102132.09;;;10.71;74.31
51603;BME280;37954;51.980;5.850;2024-03-06T17:31:27;102122.41;;;10.56;74.72
51603;BME280;37954;51.980;5.850;2024-03-06T17:35:38;102114.78;;;10.38;75.39
51603;BME280;37954;51.980;5.850;2024-03-06T17:39:50;102127.72;;;10.34;76.09
51603;BME280;37954;51.980;5.850;2024-03-06T17:44:02;102145.78;;;10.26;76.71
51603;BME280;37954;51.980;5.850;2024-03-06T17:48:17;102144.75;;;10.12;77.41
51603;BME280;37954;51.980;5.850;2024-03-06T17:52:29;102138.00;;;10.01;77.30
51603;BME280;37954;51.980;5.850;2024-03-06T17:56:42;102161.50;;;9.99;78.18
51603;BME280;37954;51.980;5.850;2024-03-06T18:00:54;102146.59;;;9.82;78.84
51603;BME280;37954;51.980;5.850;2024-03-06T18:05:06;102164.72;;;9.80;78.74
51603;BME280;37954;51.980;5.850;2024-03-06T18:09:19;102164.34;;;9.68;78.94
51603;BME280;37954;51.980;5.850;2024-03-06T18:13:31;102183.75;;;9.70;79.55
51603;BME280;37954;51.980;5.850;2024-03-06T18:17:43;102169.47;;;9.55;80.06
51603;BME280;37954;51.980;5.850;2024-03-06T18:21:54;102180.59;;;9.52;80.66
51603;BME280;37954;51.980;5.850;2024-03-06T18:26:06;102209.72;;;9.55;80.75
51603;BME280;37954;51.980;5.850;2024-03-06T18:30:19;102193.88;;;9.46;81.12
51603;BME280;37954;51.980;5.850;2024-03-06T18:34:31;102186.91;;;9.36;81.41
51603;BME280;37954;51.980;5.850;2024-03-06T18:38:45;102193.00;;;9.30;81.40
51603;BME280;37954;51.980;5.850;2024-03-06T18:42:57;102171.94;;;9.19;81.91
51603;BME280;37954;51.980;5.850;2024-03-06T18:47:09;102200.91;;;9.24;81.97
51603;BME280;37954;51.980;5.850;2024-03-06T18:51:21;102208.47;;;9.20;82.45
51603;BME280;37954;51.980;5.850;2024-03-06T18:55:33;102198.34;;;9.07;82.49
51603;BME280;37954;51.980;5.850;2024-03-06T18:59:45;102208.75;;;9.02;82.16
51603;BME280;37954;51.980;5.850;2024-03-06T19:03:58;102209.13;;;8.99;82.85
51603;BME280;37954;51.980;5.850;2024-03-06T19:08:10;102215.00;;;8.95;82.97
51603;BME280;37954;51.980;5.850;2024-03-06T19:12:21;102233.78;;;8.95;83.16
51603;BME280;37954;51.980;5.850;2024-03-06T19:16:33;102226.09;;;8.84;84.05
51603;BME280;37954;51.980;5.850;2024-03-06T19:20:46;102239.34;;;8.85;84.08
51603;BME280;37954;51.980;5.850;2024-03-06T19:24:57;102233.72;;;8.72;83.71
51603;BME280;37954;51.980;5.850;2024-03-06T19:29:09;102220.19;;;8.65;84.52
51603;BME280;37954;51.980;5.850;2024-03-06T19:33:21;102237.56;;;8.69;84.86
51603;BME280;37954;51.980;5.850;2024-03-06T19:37:34;102228.56;;;8.62;84.78
51603;BME280;37954;51.980;5.850;2024-03-06T19:41:45;102233.44;;;8.59;84.89
51603;BME280;37954;51.980;5.850;2024-03-06T19:45:57;102238.63;;;8.52;84.96
51603;BME280;37954;51.980;5.850;2024-03-06T19:50:09;102235.66;;;8.47;85.06
51603;BME280;37954;51.980;5.850;2024-03-06T19:54:21;102235.66;;;8.47;85.30
51603;BME280;37954;51.980;5.850;2024-03-06T19:58:33;102219.63;;;8.39;85.70
51603;BME280;37954;51.980;5.850;2024-03-06T20:02:45;102240.03;;;8.40;85.77
51603;BME280;37954;51.980;5.850;2024-03-06T20:06:57;102245.72;;;8.37;85.77
51603;BME280;37954;51.980;5.850;2024-03-06T20:11:08;102237.53;;;8.30;86.01
51603;BME280;37954;51.980;5.850;2024-03-06T20:15:20;102244.06;;;8.28;85.84
51603;BME280;37954;51.980;5.850;2024-03-06T20:19:32;102228.00;;;8.20;86.17
51603;BME280;37954;51.980;5.850;2024-03-06T20:23:44;102237.88;;;8.19;86.18
51603;BME280;37954;51.980;5.850;2024-03-06T20:27:56;102236.38;;;8.17;86.23
51603;BME280;37954;51.980;5.850;2024-03-06T20:32:08;102231.53;;;8.12;86.30
51603;BME280;37954;51.980;5.850;2024-03-06T20:36:20;102232.03;;;8.08;86.22
51603;BME280;37954;51.980;5.850;2024-03-06T20:40:31;102233.38;;;8.03;86.37
51603;BME280;37954;51.980;5.850;2024-03-06T20:44:43;102228.38;;;8.00;86.79
51603;BME280;37954;51.980;5.850;2024-03-06T20:48:56;102230.75;;;7.95;87.09
51603;BME280;37954;51.980;5.850;2024-03-06T20:53:07;102225.03;;;7.90;86.96
51603;BME280;37954;51.980;5.850;2024-03-06T20:57:19;102228.38;;;7.84;86.95
51603;BME280;37954;51.980;5.850;2024-03-06T21:01:31;102231.41;;;7.81;87.34
51603;BME280;37954;51.980;5.850;2024-03-06T21:05:43;102238.25;;;7.84;86.96
51603;BME280;37954;51.980;5.850;2024-03-06T21:09:54;102226.91;;;7.74;87.50
51603;BME280;37954;51.980;5.850;2024-03-06T21:14:06;102220.53;;;7.66;87.38
51603;BME280;37954;51.980;5.850;2024-03-06T21:18:18;102238.41;;;7.66;87.55
51603;BME280;37954;51.980;5.850;2024-03-06T21:22:30;102238.59;;;7.64;87.89
51603;BME280;37954;51.980;5.850;2024-03-06T21:26:46;102237.91;;;7.62;87.79
51603;BME280;37954;51.980;5.850;2024-03-06T21:30:58;102234.59;;;7.52;87.84
51603;BME280;37954;51.980;5.850;2024-03-06T21:35:10;102233.22;;;7.48;88.23
51603;BME280;37954;51.980;5.850;2024-03-06T21:39:22;102232.72;;;7.45;88.59
51603;BME280;37954;51.980;5.850;2024-03-06T21:43:33;102225.38;;;7.39;88.73
51603;BME280;37954;51.980;5.850;2024-03-06T21:47:45;102228.22;;;7.37;88.70
51603;BME280;37954;51.980;5.850;2024-03-06T21:51:57;102225.19;;;7.32;88.89
51603;BME280;37954;51.980;5.850;2024-03-06T21:56:10;102236.56;;;7.26;89.01
51603;BME280;37954;51.980;5.850;2024-03-06T22:00:22;102232.22;;;7.25;89.27
51603;BME280;37954;51.980;5.850;2024-03-06T22:04:34;102234.72;;;7.18;89.48
51603;BME280;37954;51.980;5.850;2024-03-06T22:08:45;102227.50;;;7.11;89.67
51603;BME280;37954;51.980;5.850;2024-03-06T22:12:57;102247.22;;;7.10;89.83
51603;BME280;37954;51.980;5.850;2024-03-06T22:17:09;102231.84;;;7.04;89.76